Time,TemperatureF,DewpointF,PressureIn,WindDirection,WindDirectionDegrees,WindSpeedMPH,WindSpeedGustMPH,Humidity,HourlyPrecipIn,Conditions,Clouds,dailyrainin,SoftwareType,DateUTC
2013-12-29 19:23:00,39.1,38.3,29.58,NNE,21,1.0,0.0,97,0.80,,,0.79,WeatherTracker,2013-12-30 00:23:00,
2013-12-29 19:24:00,39.1,38.3,29.58,NNE,23,0.0,0.0,97,0.80,,,0.79,WeatherTracker,2013-12-30 00:24:00,
2013-12-29 19:29:00,39.2,38.4,29.59,East,91,4.0,0.0,97,0.80,,,0.79,WeatherTracker,2013-12-30 00:29:00,
2013-12-29 19:34:00,39.3,38.5,29.60,NW,313,0.0,0.0,97,0.80,,,0.79,WeatherTracker,2013-12-30 00:34:00,
2013-12-29 19:39:00,39.3,38.5,29.60,SE,129,0.0,0.0,97,0.80,,,0.79,WeatherTracker,2013-12-30 00:39:00,
2013-12-29 19:44:00,39.3,38.5,29.61,ESE,109,1.0,0.0,97,0.80,,,0.79,WeatherTracker,2013-12-30 00:44:00,
2013-12-29 19:49:00,39.3,38.5,29.61,ENE,74,1.0,0.0,97,0.80,,,0.79,WeatherTracker,2013-12-30 00:49:00,
2013-12-29 19:54:00,39.4,38.6,29.61,SSE,165,0.0,0.0,97,0.80,,,0.79,WeatherTracker,2013-12-30 00:54:00,
2013-12-29 19:59:00,39.4,38.6,29.61,ESE,115,0.0,0.0,97,0.80,,,0.79,WeatherTracker,2013-12-30 00:59:00,
2013-12-29 20:04:00,39.4,38.6,29.62,WNW,294,0.0,0.0,97,0.80,,,0.79,WeatherTracker,2013-12-30 01:04:00,
2013-12-29 20:09:00,39.5,38.7,29.63,ESE,120,0.0,0.0,97,0.80,,,0.79,WeatherTracker,2013-12-30 01:09:00,
2013-12-29 20:14:00,39.6,38.6,29.63,ESE,102,1.0,0.0,96,0.80,,,0.79,WeatherTracker,2013-12-30 01:14:00,
2013-12-29 20:19:00,39.5,38.5,29.63,ESE,121,1.0,0.0,96,0.80,,,0.79,WeatherTracker,2013-12-30 01:19:00,
2013-12-29 20:24:00,39.1,38.1,29.64,East,97,0.0,0.0,96,0.00,,,0.79,WeatherTracker,2013-12-30 01:24:00,
2013-12-29 20:30:00,38.9,37.9,29.64,SE,127,2.0,0.0,96,0.00,,,0.79,WeatherTracker,2013-12-30 01:30:00,
2013-12-29 20:35:00,39.0,38.0,29.65,SE,143,1.0,0.0,96,0.00,,,0.79,WeatherTracker,2013-12-30 01:35:00,
2013-12-29 20:40:00,39.3,38.5,29.65,ESE,108,0.0,0.0,97,0.00,,,0.79,WeatherTracker,2013-12-30 01:40:00,
2013-12-29 20:45:00,39.5,38.7,29.65,SW,221,1.0,0.0,97,0.00,,,0.79,WeatherTracker,2013-12-30 01:45:00,
2013-12-29 20:50:00,39.7,38.7,29.66,SE,146,1.0,0.0,96,0.00,,,0.79,WeatherTracker,2013-12-30 01:50:00,
2013-12-29 20:55:00,40.1,39.1,29.66,ESE,117,1.0,0.0,96,0.00,,,0.79,WeatherTracker,2013-12-30 01:55:00,
2013-12-29 21:00:00,40.0,38.7,29.65,NW,304,1.0,0.0,95,0.00,,,0.79,WeatherTracker,2013-12-30 02:00:00,
2013-12-29 21:05:00,40.2,38.9,29.65,ESE,115,1.0,0.0,95,0.00,,,0.79,WeatherTracker,2013-12-30 02:05:00,
2013-12-29 21:10:00,40.0,38.7,29.65,SE,133,2.0,0.0,95,0.00,,,0.79,WeatherTracker,2013-12-30 02:10:00,
2013-12-29 21:15:00,40.0,38.4,29.64,West,259,0.0,0.0,94,0.00,,,0.79,WeatherTracker,2013-12-30 02:15:00,
2013-12-29 21:20:00,40.1,38.5,29.64,West,279,0.0,0.0,94,0.00,,,0.79,WeatherTracker,2013-12-30 02:20:00,
2013-12-29 21:25:00,40.1,38.2,29.64,SE,124,0.0,0.0,93,0.00,,,0.79,WeatherTracker,2013-12-30 02:25:00,
2013-12-29 21:30:00,39.9,38.3,29.65,ESE,109,0.0,0.0,94,0.00,,,0.79,WeatherTracker,2013-12-30 02:30:00,
2013-12-29 21:35:00,39.7,37.8,29.67,East,101,0.0,0.0,93,0.00,,,0.79,WeatherTracker,2013-12-30 02:35:00,
2013-12-29 21:40:00,39.6,38.0,29.67,SE,134,1.0,0.0,94,0.00,,,0.79,WeatherTracker,2013-12-30 02:40:00,
2013-12-29 21:45:00,39.5,37.9,29.68,West,276,3.0,0.0,94,0.00,,,0.79,WeatherTracker,2013-12-30 02:45:00,
2013-12-29 21:51:00,39.9,38.0,29.70,WSW,248,0.0,0.0,93,0.00,,,0.79,WeatherTracker,2013-12-30 02:51:00,
2013-12-29 21:56:00,39.8,37.9,29.70,NW,307,0.0,0.0,93,0.00,,,0.79,WeatherTracker,2013-12-30 02:56:00,
2013-12-29 22:01:00,39.8,37.7,29.70,ESE,102,0.0,0.0,92,0.00,,,0.79,WeatherTracker,2013-12-30 03:01:00,
2013-12-29 22:05:00,39.6,37.7,29.69,SSE,165,1.0,0.0,93,0.00,,,0.79,WeatherTracker,2013-12-30 03:05:00,
2013-12-29 22:11:00,39.5,37.4,29.70,SE,145,0.0,0.0,92,0.00,,,0.79,WeatherTracker,2013-12-30 03:11:00,
2013-12-29 22:16:00,39.2,37.1,29.69,SSE,165,0.0,0.0,92,0.00,,,0.79,WeatherTracker,2013-12-30 03:16:00,
2013-12-29 22:21:00,38.8,37.0,29.70,ESE,103,0.0,0.0,93,0.00,,,0.79,WeatherTracker,2013-12-30 03:21:00,
2013-12-29 22:26:00,38.7,37.1,29.69,SSW,198,1.0,0.0,94,0.00,,,0.79,WeatherTracker,2013-12-30 03:26:00,
2013-12-29 22:31:00,38.8,37.0,29.69,West,263,0.0,0.0,93,0.00,,,0.79,WeatherTracker,2013-12-30 03:31:00,
2013-12-29 22:36:00,38.9,37.1,29.70,SSE,150,0.0,0.0,93,0.00,,,0.79,WeatherTracker,2013-12-30 03:36:00,
2013-12-29 22:41:00,38.9,36.8,29.71,NE,51,0.0,0.0,92,0.00,,,0.79,WeatherTracker,2013-12-30 03:41:00,
2013-12-29 22:46:00,38.9,37.1,29.72,WNW,297,0.0,0.0,93,0.00,,,0.79,WeatherTracker,2013-12-30 03:46:00,
2013-12-29 22:51:00,39.0,36.9,29.72,NE,36,1.0,0.0,92,0.00,,,0.79,WeatherTracker,2013-12-30 03:51:00,
2013-12-29 22:56:00,38.7,36.6,29.72,NE,37,0.0,0.0,92,0.00,,,0.79,WeatherTracker,2013-12-30 03:56:00,
2013-12-29 23:01:00,38.3,36.5,29.73,ESE,120,0.0,0.0,93,0.00,,,0.79,WeatherTracker,2013-12-30 04:01:00,
2013-12-29 23:06:00,38.1,36.3,29.73,SE,135,1.0,0.0,93,0.00,,,0.79,WeatherTracker,2013-12-30 04:06:00,
2013-12-29 23:11:00,37.9,36.1,29.73,NW,305,0.0,0.0,93,0.00,,,0.79,WeatherTracker,2013-12-30 04:11:00,
2013-12-29 23:16:00,37.9,36.3,29.73,ESE,110,0.0,0.0,94,0.00,,,0.79,WeatherTracker,2013-12-30 04:16:00,
2013-12-29 23:21:00,37.8,36.2,29.74,SE,128,0.0,0.0,94,0.00,,,0.79,WeatherTracker,2013-12-30 04:21:00,
2013-12-29 23:26:00,37.5,35.9,29.73,ESE,106,0.0,0.0,94,0.00,,,0.79,WeatherTracker,2013-12-30 04:26:00,
2013-12-29 23:31:00,37.2,35.6,29.73,ESE,108,0.0,0.0,94,0.00,,,0.79,WeatherTracker,2013-12-30 04:31:00,
2013-12-29 23:36:00,36.9,35.3,29.73,WSW,252,0.0,0.0,94,0.00,,,0.79,WeatherTracker,2013-12-30 04:36:00,
2013-12-29 23:41:00,36.3,34.7,29.73,WSW,252,0.0,0.0,94,0.00,,,0.79,WeatherTracker,2013-12-30 04:41:00,
2013-12-29 23:47:00,35.6,34.0,29.74,West,259,0.0,0.0,94,0.00,,,0.79,WeatherTracker,2013-12-30 04:47:00,
2013-12-29 23:52:00,35.0,33.7,29.75,ESE,122,0.0,0.0,95,0.00,,,0.79,WeatherTracker,2013-12-30 04:52:00,
2013-12-29 23:57:00,34.5,33.2,29.75,ESE,114,0.0,0.0,95,0.00,,,0.79,WeatherTracker,2013-12-30 04:57:00,